Time;durP1;ratioP1;P1;durP2;ratioP2;P2;SDS_P1;SDS_P2;PMS_P1;PMS_P2;Temp;Humidity;BMP_temperature;BMP_pressure;BME280_temperature;BME280_humidity;BME280_pressure;Samples;Min_cycle;Max_cycle;Signal;HPM_P1;HPM_P2
2024/03/31 00:02:33;;;;;;;17.73;7.00;;;8.10;99.90;;;8.92;99.02;96285.97;10322727;28;20407;-67
2024/03/31 00:07:36;;;;;;;16.93;6.50;;;8.10;99.90;;;8.92;99.59;96292.75;10325131;28;20358;-65
2024/03/31 00:12:44;;;;;;;18.17;6.87;;;8.10;99.90;;;8.86;99.73;96313.75;10324635;28;20329;-66
2024/03/31 00:17:46;;;;;;;18.77;7.27;;;8.00;99.90;;;8.88;99.70;96332.53;10323209;28;20359;-65
2024/03/31 00:22:49;;;;;;;19.43;7.67;;;8.00;99.90;;;8.86;100.00;96323.94;10326348;28;20325;-65
2024/03/31 00:27:52;;;;;;;18.10;6.60;;;8.00;99.90;;;8.91;100.00;96355.56;10326436;28;20345;-65
2024/03/31 00:32:55;;;;;;;36.87;16.70;;;8.00;99.90;;;8.95;100.00;96369.28;10341891;28;20326;-66
2024/03/31 00:37:57;;;;;;;19.93;9.60;;;8.10;99.90;;;8.93;100.00;96370.94;10322477;28;21577;-65
2024/03/31 00:43:00;;;;;;;17.40;8.20;;;8.10;99.90;;;8.96;100.00;96384.66;10327828;28;20305;-66
2024/03/31 00:48:03;;;;;;;20.90;9.20;;;8.10;99.90;;;8.98;100.00;96379.59;10341343;28;20653;-67
2024/03/31 00:53:05;;;;;;;15.17;7.37;;;8.20;99.90;;;8.95;100.00;96372.72;10324051;28;20317;-66
2024/03/31 00:58:08;;;;;;;21.37;8.90;;;8.10;99.90;;;8.95;100.00;96388.00;10337435;28;20305;-66
2024/03/31 01:03:11;;;;;;;21.23;9.20;;;8.10;99.90;;;9.09;100.00;96393.63;10328623;28;20323;-66
2024/03/31 01:08:13;;;;;;;18.97;7.17;;;8.20;99.90;;;9.00;99.76;96383.94;10294190;28;20322;-66
2024/03/31 01:13:17;;;;;;;18.40;7.07;;;8.10;99.90;;;8.90;99.42;96397.16;10344149;28;20321;-66
2024/03/31 01:18:19;;;;;;;15.83;6.40;;;8.10;99.90;;;8.97;99.16;96394.03;10302694;28;20321;-66
2024/03/31 01:23:26;;;;;;;20.47;7.23;;;8.20;99.90;;;9.03;99.87;96398.50;10305160;28;20322;-66
2024/03/31 01:28:33;;;;;;;19.67;8.07;;;8.30;99.90;;;8.93;99.98;96396.41;10289982;28;20432;-66
2024/03/31 01:33:35;;;;;;;14.60;6.90;;;8.20;99.90;;;8.88;100.00;96388.56;10308612;28;20321;-66
2024/03/31 01:38:37;;;;;;;18.17;6.63;;;8.10;99.90;;;8.98;99.76;96338.84;10333365;28;20242;-66
2024/03/31 01:43:41;;;;;;;17.20;6.57;;;8.20;99.90;;;9.11;99.81;96289.22;10318162;28;20349;-66
2024/03/31 01:48:43;;;;;;;18.83;6.47;;;8.30;99.90;;;9.10;100.00;96251.78;10331744;28;20509;-66
2024/03/31 01:53:45;;;;;;;15.40;5.53;;;8.40;99.90;;;9.24;100.00;96276.97;10328042;28;20317;-66
2024/03/31 01:58:48;;;;;;;12.40;5.80;;;8.50;99.90;;;9.29;99.38;96274.56;10331474;28;20896;-66
2024/03/31 02:03:50;;;;;;;16.40;6.50;;;8.40;99.90;;;9.15;100.00;96276.63;10327705;28;20312;-66
2024/03/31 02:08:52;;;;;;;15.33;6.20;;;8.40;99.90;;;9.12;100.00;96286.69;10330962;28;20309;-66
2024/03/31 02:13:56;;;;;;;19.70;7.40;;;8.30;99.90;;;9.02;100.00;96284.66;10334710;28;20326;-66
2024/03/31 02:18:58;;;;;;;12.93;5.77;;;8.30;99.90;;;9.03;100.00;96310.16;10361817;28;20310;-66
2024/03/31 02:24:00;;;;;;;15.13;6.27;;;8.30;99.90;;;9.06;100.00;96285.63;10329449;28;20321;-66
2024/03/31 02:29:04;;;;;;;16.30;6.40;;;8.30;99.90;;;8.97;100.00;96276.81;10313740;28;20313;-66
2024/03/31 02:34:06;;;;;;;14.67;6.00;;;8.20;99.90;;;8.97;100.00;96258.97;10314726;28;20333;-66
2024/03/31 02:39:09;;;;;;;19.27;6.37;;;8.20;99.90;;;8.98;100.00;96260.69;10331700;28;20341;-66
2024/03/31 02:44:13;;;;;;;16.50;6.30;;;8.20;99.90;;;9.01;100.00;96268.50;10329636;28;20352;-67
2024/03/31 02:49:15;;;;;;;17.67;6.03;;;8.20;99.90;;;8.97;100.00;96248.78;10314705;28;20313;-66
2024/03/31 02:54:17;;;;;;;13.43;6.43;;;8.20;99.90;;;8.94;100.00;96237.63;10328865;28;20321;-66
2024/03/31 02:59:20;;;;;;;14.27;6.03;;;8.10;99.90;;;8.94;100.00;96251.22;10319099;28;20679;-66
2024/03/31 03:04:22;;;;;;;17.93;6.50;;;8.10;99.90;;;8.86;100.00;96267.03;10327169;28;20805;-66
2024/03/31 03:09:24;;;;;;;16.87;6.03;;;8.00;99.90;;;8.70;100.00;96263.91;10321963;28;20806;-66
2024/03/31 03:14:28;;;;;;;15.27;6.47;;;7.90;99.90;;;8.62;100.00;96256.78;10287538;28;20314;-66
2024/03/31 03:19:30;;;;;;;22.93;7.73;;;7.80;99.90;;;8.62;100.00;96251.69;10295448;28;20314;-66
2024/03/31 03:24:32;;;;;;;17.77;6.43;;;7.80;99.90;;;8.57;100.00;96260.00;10324431;28;20788;-66
2024/03/31 03:29:35;;;;;;;18.43;6.47;;;7.80;99.90;;;8.45;100.00;96218.81;10326521;28;20772;-66
2024/03/31 03:34:38;;;;;;;10.77;6.40;;;7.60;99.90;;;8.37;100.00;96229.47;10322220;28;20781;-66
2024/03/31 03:39:41;;;;;;;17.40;6.63;;;7.50;99.90;;;8.28;100.00;96240.16;10298546;28;20697;-66
2024/03/31 03:44:44;;;;;;;15.47;6.27;;;7.40;99.90;;;8.09;100.00;96239.41;10310247;28;20317;-66
2024/03/31 03:49:46;;;;;;;13.80;5.90;;;7.20;99.90;;;8.08;100.00;96242.78;10332134;28;20325;-66
2024/03/31 03:59:54;;;;;;;15.30;6.97;;;6.90;99.90;;;7.67;100.00;96239.41;10253509;28;20336;-65
2024/03/31 04:04:56;;;;;;;13.03;6.43;;;6.80;99.90;;;7.55;100.00;96251.59;10245153;28;20310;-66
2024/03/31 04:09:58;;;;;;;14.47;5.80;;;6.70;99.90;;;7.48;100.00;96246.22;10211363;28;20236;-65
2024/03/31 04:15:03;;;;;;;10.60;5.47;;;6.60;99.90;;;7.42;100.00;96252.75;10205287;28;20614;-64
2024/03/31 04:20:06;;;;;;;15.77;6.03;;;6.60;99.90;;;7.26;100.00;96249.50;10242951;28;20317;-65
2024/03/31 04:25:08;;;;;;;17.23;7.13;;;6.40;99.90;;;7.25;100.00;96252.84;10251414;28;20319;-66
2024/03/31 04:30:12;;;;;;;13.80;6.73;;;6.40;99.90;;;7.28;100.00;96263.13;10247409;28;20314;-64
2024/03/31 04:35:14;;;;;;;17.23;6.50;;;6.50;99.90;;;7.29;100.00;96268.28;10274872;28;20242;-63
2024/03/31 04:40:17;;;;;;;12.40;6.80;;;6.40;99.90;;;7.24;100.00;96277.38;10253664;28;20232;-64
2024/03/31 04:45:20;;;;;;;13.17;6.33;;;6.40;99.90;;;7.14;100.00;96273.56;10263153;28;20239;-64
2024/03/31 04:50:22;;;;;;;14.77;6.13;;;6.30;99.90;;;7.06;100.00;96279.97;10246776;28;20280;-65
2024/03/31 04:55:24;;;;;;;14.50;5.90;;;6.20;99.90;;;6.90;100.00;96275.03;10250786;28;20823;-65
2024/03/31 05:00:28;;;;;;;16.20;5.97;;;6.10;99.90;;;6.95;100.00;96291.31;10276697;28;20306;-65
2024/03/31 05:05:30;;;;;;;15.07;6.27;;;6.10;99.90;;;6.90;100.00;96292.78;10267282;28;20329;-65
2024/03/31 05:10:32;;;;;;;13.77;6.00;;;6.10;99.90;;;6.82;100.00;96294.09;10286963;28;20295;-64
2024/03/31 05:15:36;;;;;;;12.07;5.43;;;6.00;99.90;;;6.91;100.00;96297.06;10273400;28;20242;-64
2024/03/31 05:20:38;;;;;;;13.53;5.90;;;6.00;99.90;;;6.98;100.00;96299.06;10284012;28;20321;-65
2024/03/31 05:25:40;;;;;;;16.20;6.20;;;6.10;99.90;;;6.92;100.00;96304.72;10269226;28;20318;-65
2024/03/31 05:30:44;;;;;;;12.93;6.63;;;6.00;99.90;;;6.82;100.00;96312.75;10268725;28;20310;-65
2024/03/31 05:35:46;;;;;;;17.93;6.03;;;6.00;99.90;;;6.97;100.00;96322.72;10274045;28;20322;-65
2024/03/31 05:40:48;;;;;;;15.80;6.50;;;6.10;99.90;;;7.01;100.00;96329.72;10276970;28;20330;-65
2024/03/31 05:45:52;;;;;;;14.67;6.57;;;6.10;99.90;;;7.15;100.00;96321.06;10271426;28;20961;-65
2024/03/31 05:50:54;;;;;;;11.80;5.13;;;6.30;99.90;;;7.27;100.00;96305.47;10266689;28;20314;-65
2024/03/31 05:55:56;;;;;;;10.47;5.60;;;6.50;99.90;;;7.43;100.00;96310.41;10271469;28;20387;-63
2024/03/31 06:01:00;;;;;;;11.90;5.47;;;6.60;99.90;;;7.52;100.00;96309.94;10275089;28;20225;-65
2024/03/31 06:06:02;;;;;;;15.13;6.00;;;6.50;99.90;;;7.55;100.00;96293.94;10296360;28;20778;-67
2024/03/31 06:11:04;;;;;;;16.97;6.80;;;6.60;99.90;;;7.51;100.00;96267.53;10284709;28;20390;-66
2024/03/31 06:16:08;;;;;;;15.03;7.20;;;6.60;99.90;;;7.46;100.00;96263.91;10289340;28;20322;-67
2024/03/31 06:21:10;;;;;;;12.83;6.77;;;6.70;99.90;;;7.38;100.00;96247.47;10293443;28;20700;-65
2024/03/31 06:26:13;;;;;;;14.37;6.60;;;6.50;99.90;;;7.51;100.00;96247.19;10290531;28;20353;-66
2024/03/31 06:31:16;;;;;;;13.20;5.70;;;6.70;99.90;;;7.89;100.00;96251.31;10289819;28;20313;-67
2024/03/31 06:36:18;;;;;;;17.70;5.97;;;7.10;99.90;;;8.47;100.00;96236.69;10290552;28;20687;-66
2024/03/31 06:41:20;;;;;;;10.60;5.47;;;7.50;99.90;;;9.00;100.00;96231.06;10288042;28;21173;-67
2024/03/31 06:46:24;;;;;;;18.53;11.00;;;8.00;99.90;;;9.59;96.47;96218.69;10287889;28;20318;-64
2024/03/31 06:51:26;;;;;;;16.27;11.33;;;8.50;99.90;;;9.94;93.96;96231.75;10293406;28;20330;-66
2024/03/31 06:56:28;;;;;;;15.60;6.87;;;8.80;99.90;;;9.85;92.11;96223.81;10290250;28;20322;-66
2024/03/31 07:01:32;;;;;;;14.47;6.30;;;8.60;99.90;;;10.33;93.17;96201.56;10279265;28;20341;-67
2024/03/31 07:06:34;;;;;;;17.73;6.15;;;9.30;99.90;;;11.06;89.57;96186.66;10272110;28;20310;-66
2024/03/31 07:11:36;;;;;;;15.70;7.03;;;9.80;99.90;;;11.50;87.11;96194.66;10275539;28;20806;-66
2024/03/31 07:16:39;;;;;;;18.58;6.57;;;10.20;99.90;;;11.88;82.10;96190.56;10274765;28;20310;-66
2024/03/31 07:21:41;;;;;;;13.68;5.63;;;10.40;99.90;;;12.40;79.71;96188.38;10287463;28;20845;-65
2024/03/31 07:26:44;;;;;;;12.13;5.85;;;10.80;99.90;;;12.34;80.19;96183.13;10276652;28;20373;-67
2024/03/31 07:31:47;;;;;;;13.43;6.22;;;11.10;99.90;;;12.34;79.49;96199.34;10277441;28;20333;-67
2024/03/31 07:36:49;;;;;;;14.60;6.07;;;11.20;99.90;;;11.99;82.30;96185.72;10278962;28;20231;-67
2024/03/31 07:41:51;;;;;;;20.85;5.90;;;11.00;99.90;;;11.60;83.94;96180.44;10296898;28;20329;-66
2024/03/31 07:46:55;;;;;;;14.15;5.90;;;10.70;99.90;;;11.76;84.20;96161.19;10300666;28;21398;-66
2024/03/31 07:51:57;;;;;;;15.25;5.97;;;10.80;99.90;;;12.32;84.10;96171.97;10274169;28;20238;-66
2024/03/31 07:56:59;;;;;;;15.93;7.80;;;11.30;99.90;;;12.71;81.51;96168.56;10300391;28;20975;-66
2024/03/31 08:02:03;;;;;;;15.98;6.72;;;11.70;99.90;;;12.80;81.03;96167.03;10297806;28;20314;-67
2024/03/31 08:07:05;;;;;;;16.42;6.47;;;11.80;99.90;;;13.00;80.13;96156.34;10305528;28;20257;-67
2024/03/31 08:12:07;;;;;;;16.95;5.80;;;12.00;99.90;;;13.29;79.19;96154.34;10274211;28;20318;-67
2024/03/31 08:17:11;;;;;;;16.85;5.90;;;12.40;99.90;;;13.50;79.31;96177.84;10281970;28;20321;-67
2024/03/31 08:22:13;;;;;;;13.75;5.47;;;12.70;99.90;;;14.16;74.42;96172.97;10269337;28;20707;-67
2024/03/31 08:27:16;;;;;;;13.57;5.70;;;13.30;99.90;;;14.07;76.05;96163.41;10270313;28;20322;-67
2024/03/31 08:32:20;;;;;;;10.90;4.90;;;13.40;99.90;;;14.73;73.97;96166.97;10300710;28;20305;-66
2024/03/31 08:37:22;;;;;;;18.17;4.97;;;13.90;99.90;;;15.16;72.53;96149.47;10271840;28;20791;-66
2024/03/31 08:42:33;;;;;;;11.35;4.10;;;14.50;99.90;;;15.33;69.78;96168.56;10294915;28;20227;-66
2024/03/31 08:47:37;;;;;;;9.18;3.13;;;14.80;99.90;;;15.58;68.56;96153.38;10268903;28;20318;-65
2024/03/31 08:52:39;;;;;;;14.57;3.90;;;15.00;99.90;;;15.64;66.37;96145.69;10279945;28;20594;-67
2024/03/31 08:57:42;;;;;;;12.55;3.17;;;15.00;99.90;;;15.19;67.56;96144.38;10275232;28;20314;-67
2024/03/31 09:02:46;;;;;;;9.70;3.33;;;14.50;99.90;;;15.07;67.63;96137.38;10288425;28;20311;-66
2024/03/31 09:07:48;;;;;;;9.30;3.70;;;14.50;99.90;;;15.27;67.84;96159.91;10272294;28;20237;-66
2024/03/31 09:12:51;;;;;;;14.75;3.60;;;14.70;99.90;;;15.30;66.56;96135.06;10272340;28;20325;-65
2024/03/31 09:17:55;;;;;;;14.27;4.03;;;14.90;99.90;;;15.64;66.22;96125.09;10270993;28;20322;-64
2024/03/31 09:22:58;;;;;;;15.02;3.97;;;15.00;99.90;;;16.15;64.80;96126.41;10288469;28;20314;-65
2024/03/31 09:28:02;;;;;;;16.63;3.75;;;15.50;99.90;;;16.04;63.86;96111.72;10271179;28;20314;-67
2024/03/31 09:33:06;;;;;;;18.73;4.32;;;15.40;99.90;;;16.48;62.73;96101.69;10293313;28;20647;-65
2024/03/31 09:38:09;;;;;;;15.65;3.78;;;15.80;99.90;;;16.67;64.75;96093.19;10280369;28;20321;-67
2024/03/31 09:43:11;;;;;;;17.13;4.15;;;16.10;99.90;;;17.11;60.78;96087.38;10280272;28;20696;-71
2024/03/31 09:48:20;;;;;;;15.43;4.32;;;16.50;99.90;;;17.02;57.92;96081.31;10306422;28;20334;-70
2024/03/31 09:53:28;;;;;;;14.95;6.03;;;16.50;99.90;;;16.97;61.64;96072.69;10294264;28;20329;-69
2024/03/31 09:58:36;;;;;;;16.25;3.95;;;16.30;99.90;;;17.33;59.04;96077.09;10276115;28;20326;-71
2024/03/31 10:03:43;;;;;;;10.38;3.35;;;16.60;99.90;;;17.46;56.81;96065.91;10282230;28;20235;-71
2024/03/31 10:08:46;;;;;;;10.80;3.78;;;16.90;99.90;;;17.44;58.11;96065.03;10275172;28;20322;-68
2024/03/31 10:13:50;;;;;;;14.32;4.10;;;16.90;99.90;;;17.52;57.29;96047.84;10276369;28;20239;-71
2024/03/31 10:18:56;;;;;;;11.68;3.17;;;16.90;99.90;;;17.70;56.63;96040.94;10278858;28;20327;-70
2024/03/31 10:24:00;;;;;;;13.82;3.70;;;17.10;99.90;;;17.49;56.52;96039.22;10274118;28;20637;-71
2024/03/31 10:29:03;;;;;;;15.18;7.60;;;16.90;99.90;;;17.41;57.38;96018.56;10278977;28;20230;-72
2024/03/31 10:34:07;;;;;;;13.93;6.35;;;16.80;99.90;;;17.74;58.02;96021.97;10288816;28;20235;-72
2024/03/31 10:39:10;;;;;;;22.10;4.28;;;17.00;99.90;;;18.04;55.67;96018.53;10292241;28;20594;-68
2024/03/31 10:44:12;;;;;;;12.48;3.90;;;17.40;99.90;;;18.18;56.54;96021.09;10266312;28;20234;-72
2024/03/31 10:49:16;;;;;;;18.83;5.70;;;17.50;99.90;;;17.84;56.27;96015.97;10289057;28;20237;-69
2024/03/31 10:54:28;;;;;;;16.58;5.80;;;17.10;99.90;;;17.70;59.69;96018.53;10270663;28;20867;-68
2024/03/31 10:59:32;;;;;;;15.98;4.53;;;16.90;99.90;;;17.90;57.43;96015.13;10271912;28;20786;-72
2024/03/31 11:04:35;;;;;;;15.23;5.07;;;17.10;99.90;;;18.29;58.28;96002.97;10271894;28;20234;-71
2024/03/31 11:09:38;;;;;;;13.93;5.45;;;17.40;99.90;;;18.13;57.65;95996.97;10269565;28;20245;-73
2024/03/31 11:14:42;;;;;;;17.55;4.13;;;17.40;99.90;;;18.09;58.69;96003.88;10289468;28;20238;-72
2024/03/31 11:19:46;;;;;;;16.38;6.45;;;17.30;99.90;;;18.43;57.05;96006.38;10287549;28;20249;-69
2024/03/31 11:24:49;;;;;;;16.23;5.38;;;17.60;99.90;;;18.26;56.15;96009.00;10269525;28;20241;-70
2024/03/31 11:29:52;;;;;;;15.43;4.53;;;17.50;99.90;;;18.51;56.49;96012.34;10272576;28;20622;-69
2024/03/31 11:34:57;;;;;;;12.63;3.60;;;17.60;99.90;;;18.47;56.26;96005.47;10269301;28;20601;-69
2024/03/31 11:40:00;;;;;;;16.48;4.03;;;17.60;99.90;;;18.15;57.32;95993.53;10286758;28;20313;-70
2024/03/31 11:45:03;;;;;;;12.73;3.40;;;17.50;99.90;;;18.06;57.46;95993.56;10270402;28;20538;-69
2024/03/31 11:50:07;;;;;;;13.80;4.03;;;17.30;99.90;;;17.81;58.14;95982.38;10269261;28;20804;-70
2024/03/31 11:55:10;;;;;;;12.48;3.70;;;17.20;99.90;;;18.09;57.91;95977.16;10269259;28;20790;-70
2024/03/31 12:00:15;;;;;;;12.80;3.80;;;17.20;99.90;;;18.07;57.75;95972.00;10287553;28;20231;-69
2024/03/31 12:05:19;;;;;;;9.32;3.58;;;17.20;99.90;;;18.03;58.17;95965.13;10275655;28;20239;-71
2024/03/31 12:10:22;;;;;;;13.07;3.30;;;17.20;99.90;;;18.54;57.61;95951.97;10282761;28;20235;-73
2024/03/31 12:15:24;;;;;;;9.57;3.42;;;17.50;99.90;;;18.77;57.13;95945.00;10268315;28;20245;-70
2024/03/31 12:20:28;;;;;;;14.48;3.92;;;17.90;99.90;;;19.15;56.41;95945.59;10272325;28;20237;-71
2024/03/31 12:25:31;;;;;;;14.93;3.90;;;18.30;99.90;;;18.90;55.73;95938.00;10277886;28;20245;-69
2024/03/31 12:30:38;;;;;;;13.48;3.78;;;18.10;99.90;;;19.13;54.48;95922.28;10272112;28;20223;-71
2024/03/31 12:35:42;;;;;;;8.82;3.40;;;18.40;99.90;;;18.90;53.24;95927.63;10267755;28;20633;-74
2024/03/31 12:40:44;;;;;;;9.63;3.17;;;18.20;99.90;;;19.19;51.86;95922.25;10265752;28;20290;-73
2024/03/31 12:45:47;;;;;;;10.60;3.63;;;18.40;99.00;;;19.28;48.44;95916.97;10273289;28;20372;-69
2024/03/31 12:50:52;;;;;;;14.88;3.78;;;18.40;96.30;;;19.25;46.81;95898.88;10266023;28;20229;-70
2024/03/31 12:55:55;;;;;;;10.43;3.45;;;18.40;94.20;;;19.24;46.98;95884.22;10263186;28;20240;-71
2024/03/31 13:00:58;;;;;;;13.27;3.92;;;18.50;94.30;;;19.11;48.39;95878.28;10265172;28;20254;-69
2024/03/31 13:06:02;;;;;;;15.45;3.55;;;18.50;94.40;;;19.09;48.07;95866.22;10268361;28;20808;-71
2024/03/31 13:11:05;;;;;;;12.77;3.95;;;18.50;94.70;;;19.24;47.88;95880.75;10267787;28;20624;-73
2024/03/31 13:16:07;;;;;;;11.32;4.20;;;18.40;94.70;;;19.35;47.00;95895.34;10277177;28;20248;-71
2024/03/31 13:21:11;;;;;;;14.80;3.92;;;18.50;94.00;;;19.17;47.01;95895.47;10274774;28;20237;-72
2024/03/31 13:26:13;;;;;;;16.58;4.47;;;18.40;94.60;;;19.29;47.38;95894.53;10266573;28;20231;-70
2024/03/31 13:31:16;;;;;;;16.45;3.67;;;18.50;94.00;;;19.49;45.75;95899.53;10275605;28;20226;-69
2024/03/31 13:36:19;;;;;;;11.80;3.38;;;18.80;92.40;;;19.66;45.72;95896.78;10270820;28;20607;-71
2024/03/31 13:41:21;;;;;;;16.17;4.30;;;18.90;92.50;;;19.26;47.29;95903.19;10267035;28;20227;-72
2024/03/31 13:46:24;;;;;;;16.77;3.90;;;18.50;93.60;;;19.26;46.79;95895.44;10287791;28;20297;-73
2024/03/31 13:51:27;;;;;;;14.23;3.58;;;18.60;93.00;;;19.08;47.73;95874.84;10298765;28;20338;-73
2024/03/31 13:56:29;;;;;;;14.80;3.58;;;18.40;93.80;;;19.22;47.81;95862.63;10269923;28;20233;-72
2024/03/31 14:01:32;;;;;;;13.07;3.53;;;18.60;93.90;;;19.02;48.88;95862.81;10271578;28;20702;-70
2024/03/31 14:06:35;;;;;;;13.25;3.63;;;18.20;95.40;;;19.16;48.70;95864.44;10267961;28;20230;-73
2024/03/31 14:11:38;;;;;;;12.82;3.97;;;18.30;95.00;;;19.20;48.74;95861.81;10269533;28;20241;-70
2024/03/31 14:16:40;;;;;;;13.40;3.92;;;18.30;95.50;;;19.31;47.98;95849.59;10271342;28;20362;-70
2024/03/31 14:21:44;;;;;;;13.27;3.67;;;18.60;94.50;;;19.30;48.03;95847.03;10286186;28;20956;-69
2024/03/31 14:26:46;;;;;;;16.63;3.63;;;18.50;94.40;;;19.18;48.63;95837.66;10283749;28;20243;-69
2024/03/31 14:31:48;;;;;;;10.25;3.03;;;18.40;94.90;;;19.26;49.19;95851.38;10288585;28;20669;-70
2024/03/31 14:36:52;;;;;;;11.98;3.35;;;18.40;95.40;;;19.52;47.35;95860.63;10289290;28;20310;-69
2024/03/31 14:41:54;;;;;;;15.60;3.97;;;18.70;94.00;;;19.37;47.63;95866.81;10292451;28;20318;-68
2024/03/31 14:46:56;;;;;;;11.57;3.47;;;18.70;93.90;;;19.55;47.12;95873.56;10292265;28;20317;-68
2024/03/31 14:51:59;;;;;;;13.13;3.80;;;18.80;93.80;;;19.49;47.84;95852.91;10296313;28;20326;-68
2024/03/31 14:57:02;;;;;;;11.52;3.53;;;18.80;93.80;;;19.39;48.56;95856.44;10307896;28;20318;-67
2024/03/31 15:02:04;;;;;;;13.88;3.42;;;18.60;94.80;;;19.39;48.20;95862.47;10277312;28;20231;-68
2024/03/31 15:07:08;;;;;;;15.43;4.30;;;18.50;94.70;;;19.72;47.19;95850.09;10295361;28;20314;-70
2024/03/31 15:12:10;;;;;;;13.88;3.63;;;18.90;93.70;;;19.55;48.27;95864.06;10271909;28;20249;-67
2024/03/31 15:17:12;;;;;;;12.98;3.53;;;18.80;94.50;;;19.73;47.94;95867.34;10283513;28;20241;-69
2024/03/31 15:22:15;;;;;;;11.13;3.55;;;19.00;94.30;;;19.48;48.89;95864.13;10291739;28;20309;-68
2024/03/31 15:27:18;;;;;;;15.90;3.90;;;18.70;95.20;;;19.48;48.87;95870.16;10272891;28;20237;-72
2024/03/31 15:32:20;;;;;;;12.48;3.08;;;18.80;95.00;;;19.78;46.80;95881.97;10269805;28;20249;-70
2024/03/31 15:37:23;;;;;;;13.73;3.40;;;19.10;93.20;;;19.86;47.13;95886.19;10287663;28;20318;-70
2024/03/31 15:42:25;;;;;;;11.52;3.67;;;19.10;93.50;;;19.93;46.15;95890.47;10285588;28;20878;-69
2024/03/31 15:47:28;;;;;;;6.30;3.00;;;19.10;92.60;;;19.96;45.65;95893.00;10286633;28;20234;-69
2024/03/31 15:52:31;;;;;;;12.82;3.47;;;19.30;92.40;;;19.79;47.24;95877.66;10291328;28;20310;-66
2024/03/31 15:57:33;;;;;;;13.45;3.85;;;19.20;93.20;;;19.62;48.13;95882.13;10366573;23;20334;-68
2024/03/31 16:02:36;;;;;;;9.35;3.08;;;18.90;94.10;;;19.78;47.94;95850.88;10440776;28;20308;-67
2024/03/31 16:07:39;;;;;;;8.93;3.35;;;19.10;94.20;;;19.92;47.14;95852.44;10433243;28;20823;-68
2024/03/31 16:12:41;;;;;;;10.70;3.30;;;19.10;93.70;;;19.88;47.17;95835.19;10395124;28;20228;-69
2024/03/31 16:17:43;;;;;;;9.60;2.97;;;19.10;93.40;;;19.71;48.09;95838.84;10413097;28;20259;-69
2024/03/31 16:22:48;;;;;;;10.48;3.00;;;19.00;94.00;;;19.71;47.61;95844.03;10423586;28;20231;-69
2024/03/31 16:27:50;;;;;;;11.30;3.53;;;18.90;93.80;;;19.39;48.72;95852.13;10449605;28;20319;-68
2024/03/31 16:32:53;;;;;;;13.88;3.70;;;18.60;94.90;;;19.46;48.41;95846.00;10452987;28;20315;-68
2024/03/31 16:37:56;;;;;;;11.40;3.47;;;18.50;94.80;;;19.15;49.23;95839.41;10448202;28;20224;-68
2024/03/31 16:42:58;;;;;;;9.90;3.20;;;18.30;95.30;;;18.99;50.04;95834.34;10431193;28;20227;-68
2024/03/31 16:48:00;;;;;;;10.50;4.07;;;18.10;96.20;;;18.79;51.07;95831.94;10446737;28;20878;-68
2024/03/31 16:53:04;;;;;;;10.30;4.10;;;17.80;97.40;;;18.65;51.70;95836.31;10449824;28;20608;-68
2024/03/31 16:58:06;;;;;;;13.95;4.70;;;17.70;98.50;;;18.42;55.11;95828.72;10469501;28;20318;-68
2024/03/31 17:03:09;;;;;;;12.57;4.85;;;17.40;99.90;;;18.22;57.00;95826.25;10438873;28;20221;-67
2024/03/31 17:08:12;;;;;;;14.10;4.65;;;17.20;99.90;;;18.02;58.20;95822.03;10448693;28;20904;-68
2024/03/31 17:13:14;;;;;;;12.13;3.78;;;17.10;99.90;;;17.91;59.18;95810.91;10455040;28;20220;-67
2024/03/31 17:18:17;;;;;;;6.35;3.15;;;16.90;99.90;;;17.70;61.58;95805.81;10455139;28;20239;-67
2024/03/31 17:23:22;;;;;;;12.43;3.85;;;16.70;99.90;;;17.63;62.34;95798.94;10442252;28;20238;-67
2024/03/31 17:28:24;;;;;;;11.15;4.53;;;16.60;99.90;;;17.30;65.08;95787.84;10462663;28;20296;-66
2024/03/31 17:33:26;;;;;;;12.07;4.13;;;16.40;99.90;;;17.08;65.51;95790.50;10467608;28;20327;-67
2024/03/31 17:38:30;;;;;;;10.43;4.85;;;16.20;99.90;;;16.86;65.92;95794.81;10441828;28;20801;-67
2024/03/31 17:43:33;;;;;;;11.68;7.32;;;16.00;99.90;;;16.83;67.13;95792.25;10442789;28;20323;-67
2024/03/31 17:48:38;;;;;;;10.00;3.85;;;15.90;99.90;;;16.59;67.06;95798.22;10440728;28;20661;-68
2024/03/31 17:53:42;;;;;;;9.80;4.32;;;15.80;99.90;;;16.62;66.94;95805.09;10442769;28;20303;-67
2024/03/31 17:58:46;;;;;;;9.43;4.60;;;15.70;99.90;;;16.46;69.14;95808.56;10451473;28;20364;-67
2024/03/31 18:03:50;;;;;;;9.00;4.93;;;15.40;99.90;;;16.33;69.26;95797.34;10462142;28;20782;-67
2024/03/31 18:08:55;;;;;;;11.23;3.92;;;15.40;99.90;;;16.04;71.08;95800.75;10444331;28;20215;-67
2024/03/31 18:13:59;;;;;;;8.23;3.25;;;15.10;99.90;;;15.83;72.21;95811.00;10453549;28;20833;-67
2024/03/31 18:19:02;;;;;;;9.43;3.78;;;14.90;99.90;;;15.85;73.04;95814.44;10452755;28;20780;-68
2024/03/31 18:24:06;;;;;;;6.50;3.08;;;14.80;99.90;;;15.40;74.44;95815.94;10449604;28;20299;-67
2024/03/31 18:29:08;;;;;;;13.73;6.93;;;14.50;99.90;;;15.48;73.15;95825.41;10449695;28;20339;-67
2024/03/31 18:34:13;;;;;;;11.50;6.55;;;14.60;99.90;;;15.49;74.29;95815.97;10422129;28;20225;-68
2024/03/31 18:39:16;;;;;;;12.20;5.60;;;14.50;99.90;;;15.13;73.63;95816.63;10425933;28;20653;-68
2024/03/31 18:44:18;;;;;;;11.40;5.45;;;14.30;99.90;;;15.07;74.04;95813.16;10445696;28;20262;-67
2024/03/31 18:49:21;;;;;;;11.20;6.28;;;14.20;99.90;;;15.00;74.43;95805.41;10400637;28;20283;-68
2024/03/31 18:54:24;;;;;;;5.75;3.17;;;14.10;99.90;;;14.78;74.58;95786.38;10432894;28;20239;-67
2024/03/31 18:59:26;;;;;;;8.13;2.78;;;13.80;99.90;;;14.37;74.39;95785.19;10418168;28;20343;-68
2024/03/31 19:04:28;;;;;;;8.48;4.65;;;13.50;99.90;;;14.25;74.25;95808.22;10431206;28;20232;-67
2024/03/31 19:09:32;;;;;;;6.18;2.92;;;13.40;99.90;;;13.95;75.06;95824.16;10418814;28;20233;-68
2024/03/31 19:14:34;;;;;;;6.18;2.78;;;13.00;99.90;;;13.70;76.89;95834.16;10445377;28;20786;-67
2024/03/31 19:19:36;;;;;;;4.25;2.13;;;12.80;99.90;;;13.47;76.63;95858.66;10442425;28;20234;-67
2024/03/31 19:24:41;;;;;;;7.45;2.65;;;12.60;99.90;;;13.35;76.53;95874.75;10443678;28;20314;-70
2024/03/31 19:29:43;;;;;;;4.45;2.30;;;12.40;99.90;;;13.19;78.95;95889.06;10441226;28;20273;-67
2024/03/31 19:34:45;;;;;;;5.68;2.70;;;12.20;99.90;;;13.04;79.20;95899.06;10435968;28;20608;-67
2024/03/31 19:39:49;;;;;;;5.60;2.60;;;12.10;99.90;;;12.95;79.80;95880.97;10443588;28;20246;-67
2024/03/31 19:44:52;;;;;;;4.75;2.90;;;12.00;99.90;;;12.89;79.67;95897.13;10456814;28;20220;-67
2024/03/31 19:49:54;;;;;;;5.30;3.35;;;11.90;99.90;;;12.87;79.43;95887.69;10436941;28;20653;-68
2024/03/31 19:54:58;;;;;;;3.42;2.65;;;12.00;99.90;;;12.88;77.63;95889.41;10440115;28;20232;-67
2024/03/31 20:00:00;;;;;;;3.92;2.78;;;11.90;99.90;;;12.91;76.41;95889.47;10403650;28;20229;-67
2024/03/31 20:05:02;;;;;;;3.30;2.45;;;12.00;99.90;;;12.85;76.32;95897.94;10393599;28;20217;-66
2024/03/31 20:10:06;;;;;;;5.15;3.55;;;12.00;99.90;;;12.59;75.66;95897.47;10430383;28;20664;-70
2024/03/31 20:15:08;;;;;;;3.92;2.88;;;11.70;99.90;;;12.38;75.40;95897.97;10444842;28;20235;-69
2024/03/31 20:20:11;;;;;;;2.03;1.88;;;11.60;99.90;;;12.39;74.53;95900.56;10411359;28;20324;-68
2024/03/31 20:25:15;;;;;;;3.20;1.90;;;11.50;99.90;;;12.27;76.34;95907.13;10405362;28;20307;-66
2024/03/31 20:30:17;;;;;;;3.20;1.92;;;11.40;99.90;;;12.24;77.34;95914.78;10423009;28;20316;-66
2024/03/31 20:35:19;;;;;;;2.53;2.03;;;11.40;99.90;;;12.15;78.08;95911.19;10448210;28;20220;-66
2024/03/31 20:40:23;;;;;;;2.85;2.38;;;11.20;99.90;;;12.08;79.23;95913.63;10431143;28;20427;-67
2024/03/31 20:45:25;;;;;;;2.63;2.40;;;11.20;99.90;;;12.03;79.67;95918.66;10443216;28;20323;-67
2024/03/31 20:50:27;;;;;;;3.70;2.20;;;11.10;99.90;;;12.01;80.63;95916.88;10427884;28;20227;-67
2024/03/31 20:55:31;;;;;;;3.35;1.98;;;11.10;99.90;;;12.00;79.91;95902.38;10447375;28;20354;-68
2024/03/31 21:00:33;;;;;;;1.92;1.77;;;11.10;99.90;;;12.01;79.71;95891.28;10420173;28;20331;-66